Buoy 21609

sailwx.info

Track history (hours):
 
Tides and Currents Weather Stations Pressure Air Temp Water Temp Dewpoint Dewpoint Depression Visibility Wind Speed Wind Dir Waves Ship Positions

Drifting buoy 21609

Last reported at 2018-Mar-20 02:00 UTC. Time now 2018-Aug-14 13:46 UTC.
Position N 15°08' E 114°39'.
Warning: this ship's position is months out of date.

Water temperature 27.9 ° C

Date/timePositionNaut miles runAvg speedWind from/ knotsBaromVisibWave heightAir tempDewpointWater temp
2018-Mar-20 02:00N 15°08' E 114°39'0 0.0 27.9
2018-Mar-20 01:00N 15°08' E 114°39'1 0.6 27.8
2018-Mar-20 00:00N 15°08' E 114°38'1 0.6 27.8
2018-Mar-19 23:00N 15°08' E 114°38'0 0.0 27.8
2018-Mar-19 22:00N 15°08' E 114°38'0 0.0 27.8
2018-Mar-19 21:00N 15°08' E 114°38'1 0.8 27.8
2018-Mar-19 20:00N 15°08' E 114°38'1 0.6 27.8
2018-Mar-19 19:00N 15°07' E 114°38'1 0.6 27.9
2018-Mar-19 18:00N 15°07' E 114°37'1 1.2 27.9
2018-Mar-19 17:00N 15°06' E 114°37'1 0.8 27.9
2018-Mar-19 16:00N 15°05' E 114°37'1 0.6 28.1
2018-Mar-19 15:00N 15°05' E 114°37'1 0.8 28.1
2018-Mar-19 14:00N 15°04' E 114°36'1 0.6 28.2
2018-Mar-19 13:00N 15°04' E 114°36'1 0.6 28.3
2018-Mar-19 12:00N 15°03' E 114°36'0 0.0 28.5
2018-Mar-19 11:00N 15°03' E 114°36'1 0.8 28.7
2018-Mar-19 10:00N 15°02' E 114°37'1 0.6 29.0
2018-Mar-19 09:00N 15°02' E 114°37'0 0.0 29.6
2018-Mar-19 08:00N 15°02' E 114°37'1 0.6 29.5
2018-Mar-19 07:00N 15°01' E 114°37'1 0.6 29.4
2018-Mar-19 06:00N 15°01' E 114°37'1 0.6 29.1
2018-Mar-19 05:00N 15°01' E 114°37'0 0.0 28.6
2018-Mar-19 04:00N 15°01' E 114°37'1 0.8 28.3
2018-Mar-19 03:00N 15°00' E 114°38'1 0.6 28.1
2018-Mar-19 02:00N 15°01' E 114°38'0 0.0 27.7
2018-Mar-19 01:00N 15°01' E 114°38'1 0.6 27.6
2018-Mar-19 00:00N 15°01' E 114°38'0 0.0 27.6
2018-Mar-18 23:00N 15°01' E 114°38'0 0.0 27.6
2018-Mar-18 22:00N 15°01' E 114°38'1 0.6 27.6
2018-Mar-18 21:00N 15°00' E 114°38'1 0.6 27.6
2018-Mar-18 20:00N 15°00' E 114°39'0 0.0 27.6
2018-Mar-18 19:00N 15°00' E 114°39'1 0.6 27.6
2018-Mar-18 18:00N 14°59' E 114°39'1 0.6 27.6
2018-Mar-18 17:00N 14°59' E 114°39'1 0.6 27.6
2018-Mar-18 16:00N 14°58' E 114°39'0 0.0 27.7
2018-Mar-18 15:00N 14°58' E 114°39'1 0.6 27.7
2018-Mar-18 14:00N 14°58' E 114°39'0 0.0 27.8
2018-Mar-18 13:00N 14°58' E 114°39'0 0.0 27.8
2018-Mar-18 12:00N 14°58' E 114°39'0 0.0 27.9
2018-Mar-18 11:00N 14°58' E 114°39'1 0.6 27.9
2018-Mar-18 10:00N 14°58' E 114°40'0 0.0 27.9
2018-Mar-18 09:00N 14°58' E 114°40'1 0.6 28.0
2018-Mar-18 08:00N 14°57' E 114°40'1 0.6 28.1
2018-Mar-18 07:00N 14°57' E 114°40'0 0.0 27.9
2018-Mar-18 06:00N 14°57' E 114°40'0 0.0 27.8
2018-Mar-18 05:00N 14°57' E 114°40'0 0.0 27.8
2018-Mar-18 04:00N 14°57' E 114°40'1 0.6 27.7
2018-Mar-18 03:00N 14°57' E 114°41'0 0.0 27.5
2018-Mar-18 02:00N 14°57' E 114°41'0 0.0 27.5
2018-Mar-18 01:00N 14°57' E 114°41'1 0.6 27.5
2018-Mar-18 00:00N 14°58' E 114°41'1 0.6 27.4
2018-Mar-17 23:00N 14°57' E 114°41'0 0.0 27.4
2018-Mar-17 22:00N 14°57' E 114°41'0 0.0 27.4
2018-Mar-17 21:00N 14°57' E 114°41'0 0.0 27.5
2018-Mar-17 20:00N 14°57' E 114°41'1 0.6 27.5
2018-Mar-17 19:00N 14°56' E 114°41'1 0.6 27.5
2018-Mar-17 18:00N 14°56' E 114°41'0 0.0 27.5
2018-Mar-17 17:00N 14°56' E 114°41'1 0.8 27.5
2018-Mar-17 16:00N 14°55' E 114°40'1 0.6 27.5
2018-Mar-17 15:00N 14°55' E 114°40'1 0.6 27.5
2018-Mar-17 14:00N 14°54' E 114°40'1 0.6 27.6
2018-Mar-17 13:00N 14°53' E 114°40'1 0.6 27.6
2018-Mar-17 12:00N 14°53' E 114°40'1 1.2 27.6
2018-Mar-17 11:00N 14°52' E 114°40'1 0.8 27.7
2018-Mar-17 10:00N 14°51' E 114°41'1 0.6 27.7
2018-Mar-17 09:00N 14°50' E 114°41'1 0.8 27.7
2018-Mar-17 08:00N 14°50' E 114°41'1 0.8 27.7
2018-Mar-17 07:00N 14°49' E 114°42'1 0.6 27.7
2018-Mar-17 06:00N 14°49' E 114°42'1 0.6 27.6
2018-Mar-17 05:00N 14°49' E 114°43'1 0.8 27.6
2018-Mar-17 04:00N 14°48' E 114°43'1 0.8 27.5
2018-Mar-17 03:00N 14°47' E 114°44'1 0.6 27.5
2018-Mar-17 02:00N 14°47' E 114°44'1 0.6 27.5
2018-Mar-17 01:00N 14°47' E 114°45'1 0.8 27.4
2018-Mar-17 00:00N 14°47' E 114°46'1 0.6 27.4
2018-Mar-16 23:00N 14°47' E 114°46'1 0.6 27.4
2018-Mar-16 22:00N 14°47' E 114°47'1 0.6 27.5
2018-Mar-16 21:00N 14°47' E 114°47'1 0.6 27.5
2018-Mar-16 20:00N 14°47' E 114°48'1 0.8 27.5
2018-Mar-16 19:00N 14°46' E 114°49'0 0.0 27.5
2018-Mar-16 18:00N 14°46' E 114°49'1 0.6 27.5
2018-Mar-16 17:00N 14°46' E 114°49'1 0.6 27.6
2018-Mar-16 16:00N 14°46' E 114°49'1 0.6 27.6
2018-Mar-16 15:00N 14°46' E 114°50'1 0.6 27.6
2018-Mar-16 14:00N 14°45' E 114°50'0 0.0 27.7
2018-Mar-16 13:00N 14°45' E 114°50'1 0.6 27.7
2018-Mar-16 12:00N 14°44' E 114°50'0 0.0 27.9
2018-Mar-16 11:00N 14°44' E 114°50'1 0.6 28.0
2018-Mar-16 10:00N 14°44' E 114°50'0 0.0 28.1
2018-Mar-16 09:00N 14°44' E 114°50'1 0.8 28.2
2018-Mar-16 08:00N 14°43' E 114°50'0 0.0 28.3
2018-Mar-16 07:00N 14°43' E 114°50'1 0.6 28.3
2018-Mar-16 06:00N 14°43' E 114°51'0 0.0 28.1
2018-Mar-16 05:00N 14°43' E 114°51'1 0.6 28.0
2018-Mar-16 04:00N 14°43' E 114°52'1 0.6 27.9
2018-Mar-16 03:00N 14°43' E 114°52'1 0.6 27.9
2018-Mar-16 02:00N 14°43' E 114°52'1 0.6 27.7
2018-Mar-16 01:00N 14°42' E 114°52'1 0.6 27.6
2018-Mar-16 00:00N 14°42' E 114°53'0 0.0 27.5
2018-Mar-15 23:00N 14°42' E 114°53'1 0.6 27.5
2018-Mar-15 22:00N 14°42' E 114°53'0 0.0 27.5
2018-Mar-15 21:00N 14°42' E 114°53'1 0.8 27.6
2018-Mar-15 20:00N 14°41' E 114°54'0 0.0 27.6
2018-Mar-15 19:00N 14°41' E 114°54'0 0.0 27.6
2018-Mar-15 18:00N 14°41' E 114°54'1 0.6 27.6
2018-Mar-15 17:00N 14°41' E 114°54'0 0.0 27.6
2018-Mar-15 16:00N 14°41' E 114°54'1 0.8 27.6
2018-Mar-15 15:00N 14°40' E 114°55'0 0.0 27.6
2018-Mar-15 14:00N 14°40' E 114°55'1 0.6 27.6
2018-Mar-15 13:00N 14°40' E 114°55'1 0.6 27.7
2018-Mar-15 12:00N 14°39' E 114°55'1 0.6 27.7
2018-Mar-15 11:00N 14°38' E 114°55'0 0.0 27.6
2018-Mar-15 10:00N 14°38' E 114°55'1 0.6 27.9
2018-Mar-15 09:00N 14°38' E 114°55'1 0.8 27.9
2018-Mar-15 08:00N 14°37' E 114°55'0 0.0 28.0
2018-Mar-15 07:00N 14°37' E 114°55'1 0.8 28.1
2018-Mar-15 06:00N 14°37' E 114°56'1 0.8 28.1
2018-Mar-15 05:00N 14°36' E 114°56'1 0.8 27.9
2018-Mar-15 04:00N 14°35' E 114°57'1 0.6 27.9
2018-Mar-15 03:00N 14°35' E 114°58'1 0.8 27.7
2018-Mar-15 02:00N 14°35' E 114°58'1 0.8 27.6
2018-Mar-15 01:00N 14°34' E 114°59'1 0.6 27.5
2018-Mar-15 00:00N 14°34' E 114°59'1 1.3 27.4
2018-Mar-14 23:00N 14°34' E 115°01'1 0.6 27.5
2018-Mar-14 22:00N 14°34' E 115°01'1 0.8 27.5
2018-Mar-14 21:00N 14°34' E 115°02'0 0.0 27.5
2018-Mar-14 20:00N 14°34' E 115°02'1 0.6 27.6
2018-Mar-14 19:00N 14°34' E 115°02'0 0.0 27.6
2018-Mar-14 18:00N 14°34' E 115°02'1 0.6 27.7
2018-Mar-14 17:00N 14°34' E 115°03'1 0.6 27.7
2018-Mar-14 16:00N 14°34' E 115°03'1 0.6 27.8
2018-Mar-14 15:00N 14°34' E 115°04'0 0.0 27.8
2018-Mar-14 14:00N 14°34' E 115°04'1 0.6 27.8
2018-Mar-14 13:00N 14°34' E 115°04'1 0.6 27.8
2018-Mar-14 12:00N 14°34' E 115°05'0 0.0 27.9
2018-Mar-14 11:00N 14°34' E 115°05'1 0.6 28.1
2018-Mar-14 10:00N 14°34' E 115°05'0 0.0 28.4
2018-Mar-14 09:00N 14°34' E 115°05'0 0.0 28.8
2018-Mar-14 08:00N 14°34' E 115°05'1 0.8 29.0
2018-Mar-14 07:00N 14°33' E 115°06'0 0.0 29.0
2018-Mar-14 06:00N 14°33' E 115°06'0 0.0 28.9
2018-Mar-14 05:00N 14°33' E 115°06'1 0.6 28.3
2018-Mar-14 04:00N 14°32' E 115°06'1 0.6 28.1
2018-Mar-14 03:00N 14°32' E 115°07'0 0.0 27.7
2018-Mar-14 02:00N 14°32' E 115°07'1 0.8 27.5
2018-Mar-14 01:00N 14°32' E 115°07'0 0.0 27.4
2018-Mar-14 00:00N 14°32' E 115°07'1 0.8 27.3
2018-Mar-13 23:00N 14°31' E 115°08'1 0.6 27.3
2018-Mar-13 22:00N 14°31' E 115°08'1 0.6 27.3
2018-Mar-13 21:00N 14°31' E 115°09'0 0.0 27.3
2018-Mar-13 20:00N 14°31' E 115°09'1 0.6 27.4
2018-Mar-13 19:00N 14°31' E 115°10'1 0.6 27.4
2018-Mar-13 18:00N 14°31' E 115°10'1 0.6 27.4
2018-Mar-13 17:00N 14°31' E 115°10'0 0.0 27.4
2018-Mar-13 16:00N 14°31' E 115°10'1 0.6 27.4
2018-Mar-13 15:00N 14°30' E 115°10'1 0.6 27.4
2018-Mar-13 14:00N 14°30' E 115°11'1 0.6 27.4
2018-Mar-13 13:00N 14°29' E 115°11'0 0.0 27.5
2018-Mar-13 12:00N 14°29' E 115°11'1 0.8 27.5
2018-Mar-13 11:00N 14°29' E 115°11'1 0.6 27.6
2018-Mar-13 10:00N 14°29' E 115°12'1 0.6 27.6
2018-Mar-13 09:00N 14°29' E 115°13'1 0.8 27.7
2018-Mar-13 08:00N 14°28' E 115°13'1 0.6 27.7
2018-Mar-13 07:00N 14°28' E 115°13'1 0.6 27.7
2018-Mar-13 06:00N 14°28' E 115°14'0 0.0 27.6
2018-Mar-13 05:00N 14°28' E 115°14'1 0.8 27.6
2018-Mar-13 04:00N 14°27' E 115°14'1 0.8 27.5
2018-Mar-13 03:00N 14°26' E 115°15'1 0.8 27.4
2018-Mar-13 02:00N 14°26' E 115°16'1 0.6 27.4
2018-Mar-13 01:00N 14°26' E 115°16'1 0.8 27.3
2018-Mar-13 00:00N 14°25' E 115°17'1 0.8 27.3
2018-Mar-12 23:00N 14°25' E 115°17'1 0.6 27.3
2018-Mar-12 22:00N 14°25' E 115°18'1 0.8 27.3
2018-Mar-12 21:00N 14°24' E 115°19'1 0.6 27.3
2018-Mar-12 20:00N 14°24' E 115°19'1 1.2 27.3
2018-Mar-12 19:00N 14°24' E 115°20'1 0.6 27.4
2018-Mar-12 18:00N 14°24' E 115°21'1 0.8 27.4
2018-Mar-12 17:00N 14°23' E 115°22'1 0.6 27.4
2018-Mar-12 16:00N 14°23' E 115°22'1 0.6 27.4
2018-Mar-12 15:00N 14°23' E 115°23'1 0.6 27.4
2018-Mar-12 14:00N 14°23' E 115°23'1 1.2 27.4
2018-Mar-12 13:00N 14°23' E 115°25'1 0.6 27.4
2018-Mar-12 12:00N 14°23' E 115°25'1 0.8 27.4
2018-Mar-12 11:00N 14°24' E 115°26'1 0.6 27.4
2018-Mar-12 10:00N 14°24' E 115°26'1 0.6 27.5
2018-Mar-12 09:00N 14°24' E 115°27'1 0.6 27.5
2018-Mar-12 08:00N 14°24' E 115°28'1 0.8 27.5
2018-Mar-12 07:00N 14°25' E 115°28'1 0.6 27.5
2018-Mar-12 06:00N 14°25' E 115°29'0 0.0 27.5
2018-Mar-12 05:00N 14°25' E 115°29'1 0.8 27.4
2018-Mar-12 04:00N 14°24' E 115°29'1 0.6 27.4
2018-Mar-12 03:00N 14°24' E 115°30'1 0.6 27.4
2018-Mar-12 02:00N 14°23' E 115°30'1 0.6 27.4
2018-Mar-12 01:00N 14°23' E 115°31'1 0.8 27.4
2018-Mar-12 00:00N 14°23' E 115°31'1 0.6 27.4
2018-Mar-11 23:00N 14°23' E 115°32'1 0.6 27.4
2018-Mar-11 22:00N 14°23' E 115°32'1 0.8 27.4
2018-Mar-11 21:00N 14°22' E 115°33'1 0.6 27.4
2018-Mar-11 20:00N 14°22' E 115°33'1 0.6 27.4
2018-Mar-11 19:00N 14°22' E 115°34'1 1.3 27.4
2018-Mar-11 18:00N 14°21' E 115°35'1 0.8 27.4
2018-Mar-11 17:00N 14°20' E 115°35'1 0.8 27.4
2018-Mar-11 16:00N 14°20' E 115°36'1 1.3 27.4
2018-Mar-11 15:00N 14°19' E 115°37'1 0.6 27.4
2018-Mar-11 14:00N 14°19' E 115°38'1 0.8 27.4
2018-Mar-11 13:00N 14°19' E 115°38'1 0.6 27.4
2018-Mar-11 12:00N 14°19' E 115°39'1 0.8 27.4
2018-Mar-11 11:00N 14°18' E 115°40'1 0.8 27.5
2018-Mar-11 10:00N 14°17' E 115°40'1 0.8 27.5
2018-Mar-11 09:00N 14°17' E 115°41'1 1.3 27.5
2018-Mar-11 08:00N 14°16' E 115°42'1 1.3 27.5
2018-Mar-11 07:00N 14°16' E 115°43'1 1.3 27.5
2018-Mar-11 06:00N 14°15' E 115°44'1 1.3 27.5
2018-Mar-11 05:00N 14°14' E 115°46'1 1.3 27.5
2018-Mar-11 04:00N 14°14' E 115°47'1 1.2 27.5
2018-Mar-11 03:00N 14°14' E 115°48'2 1.7 27.5
2018-Mar-11 02:00N 14°14' E 115°50'1 1.3 27.5
2018-Mar-11 01:00N 14°13' E 115°51'1 0.6 27.4
2018-Mar-11 00:00N 14°13' E 115°52'1 1.2 27.4
2018-Mar-10 23:00N 14°13' E 115°53'1 1.2 27.4
2018-Mar-10 22:00N 14°13' E 115°54'1 1.2 27.5
2018-Mar-10 21:00N 14°13' E 115°55'1 1.2 27.5
2018-Mar-10 20:00N 14°13' E 115°56'1 0.8 27.5
2018-Mar-10 19:00N 14°13' E 115°57'1 0.6 27.5
2018-Mar-10 18:00N 14°13' E 115°58'1 0.6 27.5
2018-Mar-10 17:00N 14°13' E 115°58'1 0.6 27.5
2018-Mar-10 16:00N 14°13' E 115°59'1 0.8 27.5
2018-Mar-10 15:00N 14°12' E 115°59'1 1.3 27.6
2018-Mar-10 14:00N 14°11' E 116°01'1 1.3 27.6
2018-Mar-10 13:00N 14°11' E 116°02'1 1.3 27.6
2018-Mar-10 12:00N 14°10' E 116°03'1 1.2 27.6
2018-Mar-10 11:00N 14°10' E 116°04'1 1.3 27.6
2018-Mar-10 10:00N 14°10' E 116°05'1 1.3 27.6
2018-Mar-10 09:00N 14°09' E 116°07'1 0.8 27.6
2018-Mar-10 08:00N 14°08' E 116°07'1 1.2 27.7
2018-Mar-10 07:00N 14°08' E 116°08'1 1.3 27.7
2018-Mar-10 06:00N 14°08' E 116°10'1 0.6 27.7
2018-Mar-10 05:00N 14°08' E 116°10'1 1.3 27.7
2018-Mar-10 04:00N 14°07' E 116°11'1 0.6 27.7
2018-Mar-10 03:00N 14°07' E 116°12'1 1.3 27.6
2018-Mar-10 02:00N 14°07' E 116°13'   27.6
Track history (hours):
 
Tides and Currents Weather Stations Pressure Air Temp Water Temp Dewpoint Dewpoint Depression Visibility Wind Speed Wind Dir Waves Ship Positions

Drifting buoy 21609

Last reported at 2018-Mar-20 02:00 UTC. Time now 2018-Aug-14 13:46 UTC.
Position N 15°08' E 114°39'.
Warning: this ship's position is months out of date.

Water temperature 27.9 ° C

Date/timePositionNaut miles runAvg speedWind from/ knotsBaromVisibWave heightAir tempDewpointWater temp
2018-Mar-20 02:00N 15°08' E 114°39'0 0.0 27.9
2018-Mar-20 01:00N 15°08' E 114°39'1 0.6 27.8
2018-Mar-20 00:00N 15°08' E 114°38'1 0.6 27.8
2018-Mar-19 23:00N 15°08' E 114°38'0 0.0 27.8
2018-Mar-19 22:00N 15°08' E 114°38'0 0.0 27.8
2018-Mar-19 21:00N 15°08' E 114°38'1 0.8 27.8
2018-Mar-19 20:00N 15°08' E 114°38'1 0.6 27.8
2018-Mar-19 19:00N 15°07' E 114°38'1 0.6 27.9
2018-Mar-19 18:00N 15°07' E 114°37'1 1.2 27.9
2018-Mar-19 17:00N 15°06' E 114°37'1 0.8 27.9
2018-Mar-19 16:00N 15°05' E 114°37'1 0.6 28.1
2018-Mar-19 15:00N 15°05' E 114°37'1 0.8 28.1
2018-Mar-19 14:00N 15°04' E 114°36'1 0.6 28.2
2018-Mar-19 13:00N 15°04' E 114°36'1 0.6 28.3
2018-Mar-19 12:00N 15°03' E 114°36'0 0.0 28.5
2018-Mar-19 11:00N 15°03' E 114°36'1 0.8 28.7
2018-Mar-19 10:00N 15°02' E 114°37'1 0.6 29.0
2018-Mar-19 09:00N 15°02' E 114°37'0 0.0 29.6
2018-Mar-19 08:00N 15°02' E 114°37'1 0.6 29.5
2018-Mar-19 07:00N 15°01' E 114°37'1 0.6 29.4
2018-Mar-19 06:00N 15°01' E 114°37'1 0.6 29.1
2018-Mar-19 05:00N 15°01' E 114°37'0 0.0 28.6
2018-Mar-19 04:00N 15°01' E 114°37'1 0.8 28.3
2018-Mar-19 03:00N 15°00' E 114°38'1 0.6 28.1
2018-Mar-19 02:00N 15°01' E 114°38'0 0.0 27.7
2018-Mar-19 01:00N 15°01' E 114°38'1 0.6 27.6
2018-Mar-19 00:00N 15°01' E 114°38'0 0.0 27.6
2018-Mar-18 23:00N 15°01' E 114°38'0 0.0 27.6
2018-Mar-18 22:00N 15°01' E 114°38'1 0.6 27.6
2018-Mar-18 21:00N 15°00' E 114°38'1 0.6 27.6
2018-Mar-18 20:00N 15°00' E 114°39'0 0.0 27.6
2018-Mar-18 19:00N 15°00' E 114°39'1 0.6 27.6
2018-Mar-18 18:00N 14°59' E 114°39'1 0.6 27.6
2018-Mar-18 17:00N 14°59' E 114°39'1 0.6 27.6
2018-Mar-18 16:00N 14°58' E 114°39'0 0.0 27.7
2018-Mar-18 15:00N 14°58' E 114°39'1 0.6 27.7
2018-Mar-18 14:00N 14°58' E 114°39'0 0.0 27.8
2018-Mar-18 13:00N 14°58' E 114°39'0 0.0 27.8
2018-Mar-18 12:00N 14°58' E 114°39'0 0.0 27.9
2018-Mar-18 11:00N 14°58' E 114°39'1 0.6 27.9
2018-Mar-18 10:00N 14°58' E 114°40'0 0.0 27.9
2018-Mar-18 09:00N 14°58' E 114°40'1 0.6 28.0
2018-Mar-18 08:00N 14°57' E 114°40'1 0.6 28.1
2018-Mar-18 07:00N 14°57' E 114°40'0 0.0 27.9
2018-Mar-18 06:00N 14°57' E 114°40'0 0.0 27.8
2018-Mar-18 05:00N 14°57' E 114°40'0 0.0 27.8
2018-Mar-18 04:00N 14°57' E 114°40'1 0.6 27.7
2018-Mar-18 03:00N 14°57' E 114°41'0 0.0 27.5
2018-Mar-18 02:00N 14°57' E 114°41'0 0.0 27.5
2018-Mar-18 01:00N 14°57' E 114°41'1 0.6 27.5
2018-Mar-18 00:00N 14°58' E 114°41'1 0.6 27.4
2018-Mar-17 23:00N 14°57' E 114°41'0 0.0 27.4
2018-Mar-17 22:00N 14°57' E 114°41'0 0.0 27.4
2018-Mar-17 21:00N 14°57' E 114°41'0 0.0 27.5
2018-Mar-17 20:00N 14°57' E 114°41'1 0.6 27.5
2018-Mar-17 19:00N 14°56' E 114°41'1 0.6 27.5
2018-Mar-17 18:00N 14°56' E 114°41'0 0.0 27.5
2018-Mar-17 17:00N 14°56' E 114°41'1 0.8 27.5
2018-Mar-17 16:00N 14°55' E 114°40'1 0.6 27.5
2018-Mar-17 15:00N 14°55' E 114°40'1 0.6 27.5
2018-Mar-17 14:00N 14°54' E 114°40'1 0.6 27.6
2018-Mar-17 13:00N 14°53' E 114°40'1 0.6 27.6
2018-Mar-17 12:00N 14°53' E 114°40'1 1.2 27.6
2018-Mar-17 11:00N 14°52' E 114°40'1 0.8 27.7
2018-Mar-17 10:00N 14°51' E 114°41'1 0.6 27.7
2018-Mar-17 09:00N 14°50' E 114°41'1 0.8 27.7
2018-Mar-17 08:00N 14°50' E 114°41'1 0.8 27.7
2018-Mar-17 07:00N 14°49' E 114°42'1 0.6 27.7
2018-Mar-17 06:00N 14°49' E 114°42'1 0.6 27.6
2018-Mar-17 05:00N 14°49' E 114°43'1 0.8 27.6
2018-Mar-17 04:00N 14°48' E 114°43'1 0.8 27.5
2018-Mar-17 03:00N 14°47' E 114°44'1 0.6 27.5
2018-Mar-17 02:00N 14°47' E 114°44'1 0.6 27.5
2018-Mar-17 01:00N 14°47' E 114°45'1 0.8 27.4
2018-Mar-17 00:00N 14°47' E 114°46'1 0.6 27.4
2018-Mar-16 23:00N 14°47' E 114°46'1 0.6 27.4
2018-Mar-16 22:00N 14°47' E 114°47'1 0.6 27.5
2018-Mar-16 21:00N 14°47' E 114°47'1 0.6 27.5
2018-Mar-16 20:00N 14°47' E 114°48'1 0.8 27.5
2018-Mar-16 19:00N 14°46' E 114°49'0 0.0 27.5
2018-Mar-16 18:00N 14°46' E 114°49'1 0.6 27.5
2018-Mar-16 17:00N 14°46' E 114°49'1 0.6 27.6
2018-Mar-16 16:00N 14°46' E 114°49'1 0.6 27.6
2018-Mar-16 15:00N 14°46' E 114°50'1 0.6 27.6
2018-Mar-16 14:00N 14°45' E 114°50'0 0.0 27.7
2018-Mar-16 13:00N 14°45' E 114°50'1 0.6 27.7
2018-Mar-16 12:00N 14°44' E 114°50'0 0.0 27.9
2018-Mar-16 11:00N 14°44' E 114°50'1 0.6 28.0
2018-Mar-16 10:00N 14°44' E 114°50'0 0.0 28.1
2018-Mar-16 09:00N 14°44' E 114°50'1 0.8 28.2
2018-Mar-16 08:00N 14°43' E 114°50'0 0.0 28.3
2018-Mar-16 07:00N 14°43' E 114°50'1 0.6 28.3
2018-Mar-16 06:00N 14°43' E 114°51'0 0.0 28.1
2018-Mar-16 05:00N 14°43' E 114°51'1 0.6 28.0
2018-Mar-16 04:00N 14°43' E 114°52'1 0.6 27.9
2018-Mar-16 03:00N 14°43' E 114°52'1 0.6 27.9
2018-Mar-16 02:00N 14°43' E 114°52'1 0.6 27.7
2018-Mar-16 01:00N 14°42' E 114°52'1 0.6 27.6
2018-Mar-16 00:00N 14°42' E 114°53'0 0.0 27.5
2018-Mar-15 23:00N 14°42' E 114°53'1 0.6 27.5
2018-Mar-15 22:00N 14°42' E 114°53'0 0.0 27.5
2018-Mar-15 21:00N 14°42' E 114°53'1 0.8 27.6
2018-Mar-15 20:00N 14°41' E 114°54'0 0.0 27.6
2018-Mar-15 19:00N 14°41' E 114°54'0 0.0 27.6
2018-Mar-15 18:00N 14°41' E 114°54'1 0.6 27.6
2018-Mar-15 17:00N 14°41' E 114°54'0 0.0 27.6
2018-Mar-15 16:00N 14°41' E 114°54'1 0.8 27.6
2018-Mar-15 15:00N 14°40' E 114°55'0 0.0 27.6
2018-Mar-15 14:00N 14°40' E 114°55'1 0.6 27.6
2018-Mar-15 13:00N 14°40' E 114°55'1 0.6 27.7
2018-Mar-15 12:00N 14°39' E 114°55'1 0.6 27.7
2018-Mar-15 11:00N 14°38' E 114°55'0 0.0 27.6
2018-Mar-15 10:00N 14°38' E 114°55'1 0.6 27.9
2018-Mar-15 09:00N 14°38' E 114°55'1 0.8 27.9
2018-Mar-15 08:00N 14°37' E 114°55'0 0.0 28.0
2018-Mar-15 07:00N 14°37' E 114°55'1 0.8 28.1
2018-Mar-15 06:00N 14°37' E 114°56'1 0.8 28.1
2018-Mar-15 05:00N 14°36' E 114°56'1 0.8 27.9
2018-Mar-15 04:00N 14°35' E 114°57'1 0.6 27.9
2018-Mar-15 03:00N 14°35' E 114°58'1 0.8 27.7
2018-Mar-15 02:00N 14°35' E 114°58'1 0.8 27.6
2018-Mar-15 01:00N 14°34' E 114°59'1 0.6 27.5
2018-Mar-15 00:00N 14°34' E 114°59'1 1.3 27.4
2018-Mar-14 23:00N 14°34' E 115°01'1 0.6 27.5
2018-Mar-14 22:00N 14°34' E 115°01'1 0.8 27.5
2018-Mar-14 21:00N 14°34' E 115°02'0 0.0 27.5
2018-Mar-14 20:00N 14°34' E 115°02'1 0.6 27.6
2018-Mar-14 19:00N 14°34' E 115°02'0 0.0 27.6
2018-Mar-14 18:00N 14°34' E 115°02'1 0.6 27.7
2018-Mar-14 17:00N 14°34' E 115°03'1 0.6 27.7
2018-Mar-14 16:00N 14°34' E 115°03'1 0.6 27.8
2018-Mar-14 15:00N 14°34' E 115°04'0 0.0 27.8
2018-Mar-14 14:00N 14°34' E 115°04'1 0.6 27.8
2018-Mar-14 13:00N 14°34' E 115°04'1 0.6 27.8
2018-Mar-14 12:00N 14°34' E 115°05'0 0.0 27.9
2018-Mar-14 11:00N 14°34' E 115°05'1 0.6 28.1
2018-Mar-14 10:00N 14°34' E 115°05'0 0.0 28.4
2018-Mar-14 09:00N 14°34' E 115°05'0 0.0 28.8
2018-Mar-14 08:00N 14°34' E 115°05'1 0.8 29.0
2018-Mar-14 07:00N 14°33' E 115°06'0 0.0 29.0
2018-Mar-14 06:00N 14°33' E 115°06'0 0.0 28.9
2018-Mar-14 05:00N 14°33' E 115°06'1 0.6 28.3
2018-Mar-14 04:00N 14°32' E 115°06'1 0.6 28.1
2018-Mar-14 03:00N 14°32' E 115°07'0 0.0 27.7
2018-Mar-14 02:00N 14°32' E 115°07'1 0.8 27.5
2018-Mar-14 01:00N 14°32' E 115°07'0 0.0 27.4
2018-Mar-14 00:00N 14°32' E 115°07'1 0.8 27.3
2018-Mar-13 23:00N 14°31' E 115°08'1 0.6 27.3
2018-Mar-13 22:00N 14°31' E 115°08'1 0.6 27.3
2018-Mar-13 21:00N 14°31' E 115°09'0 0.0 27.3
2018-Mar-13 20:00N 14°31' E 115°09'1 0.6 27.4
2018-Mar-13 19:00N 14°31' E 115°10'1 0.6 27.4
2018-Mar-13 18:00N 14°31' E 115°10'1 0.6 27.4
2018-Mar-13 17:00N 14°31' E 115°10'0 0.0 27.4
2018-Mar-13 16:00N 14°31' E 115°10'1 0.6 27.4
2018-Mar-13 15:00N 14°30' E 115°10'1 0.6 27.4
2018-Mar-13 14:00N 14°30' E 115°11'1 0.6 27.4
2018-Mar-13 13:00N 14°29' E 115°11'0 0.0 27.5
2018-Mar-13 12:00N 14°29' E 115°11'1 0.8 27.5
2018-Mar-13 11:00N 14°29' E 115°11'1 0.6 27.6
2018-Mar-13 10:00N 14°29' E 115°12'1 0.6 27.6
2018-Mar-13 09:00N 14°29' E 115°13'1 0.8 27.7
2018-Mar-13 08:00N 14°28' E 115°13'1 0.6 27.7
2018-Mar-13 07:00N 14°28' E 115°13'1 0.6 27.7
2018-Mar-13 06:00N 14°28' E 115°14'0 0.0 27.6
2018-Mar-13 05:00N 14°28' E 115°14'1 0.8 27.6
2018-Mar-13 04:00N 14°27' E 115°14'1 0.8 27.5
2018-Mar-13 03:00N 14°26' E 115°15'1 0.8 27.4
2018-Mar-13 02:00N 14°26' E 115°16'1 0.6 27.4
2018-Mar-13 01:00N 14°26' E 115°16'1 0.8 27.3
2018-Mar-13 00:00N 14°25' E 115°17'1 0.8 27.3
2018-Mar-12 23:00N 14°25' E 115°17'1 0.6 27.3
2018-Mar-12 22:00N 14°25' E 115°18'1 0.8 27.3
2018-Mar-12 21:00N 14°24' E 115°19'1 0.6 27.3
2018-Mar-12 20:00N 14°24' E 115°19'1 1.2 27.3
2018-Mar-12 19:00N 14°24' E 115°20'1 0.6 27.4
2018-Mar-12 18:00N 14°24' E 115°21'1 0.8 27.4
2018-Mar-12 17:00N 14°23' E 115°22'1 0.6 27.4
2018-Mar-12 16:00N 14°23' E 115°22'1 0.6 27.4
2018-Mar-12 15:00N 14°23' E 115°23'1 0.6 27.4
2018-Mar-12 14:00N 14°23' E 115°23'1 1.2 27.4
2018-Mar-12 13:00N 14°23' E 115°25'1 0.6 27.4
2018-Mar-12 12:00N 14°23' E 115°25'1 0.8 27.4
2018-Mar-12 11:00N 14°24' E 115°26'1 0.6 27.4
2018-Mar-12 10:00N 14°24' E 115°26'1 0.6 27.5
2018-Mar-12 09:00N 14°24' E 115°27'1 0.6 27.5
2018-Mar-12 08:00N 14°24' E 115°28'1 0.8 27.5
2018-Mar-12 07:00N 14°25' E 115°28'1 0.6 27.5
2018-Mar-12 06:00N 14°25' E 115°29'0 0.0 27.5
2018-Mar-12 05:00N 14°25' E 115°29'1 0.8 27.4
2018-Mar-12 04:00N 14°24' E 115°29'1 0.6 27.4
2018-Mar-12 03:00N 14°24' E 115°30'1 0.6 27.4
2018-Mar-12 02:00N 14°23' E 115°30'1 0.6 27.4
2018-Mar-12 01:00N 14°23' E 115°31'1 0.8 27.4
2018-Mar-12 00:00N 14°23' E 115°31'1 0.6 27.4
2018-Mar-11 23:00N 14°23' E 115°32'1 0.6 27.4
2018-Mar-11 22:00N 14°23' E 115°32'1 0.8 27.4
2018-Mar-11 21:00N 14°22' E 115°33'1 0.6 27.4
2018-Mar-11 20:00N 14°22' E 115°33'1 0.6 27.4
2018-Mar-11 19:00N 14°22' E 115°34'1 1.3 27.4
2018-Mar-11 18:00N 14°21' E 115°35'1 0.8 27.4
2018-Mar-11 17:00N 14°20' E 115°35'1 0.8 27.4
2018-Mar-11 16:00N 14°20' E 115°36'1 1.3 27.4
2018-Mar-11 15:00N 14°19' E 115°37'1 0.6 27.4
2018-Mar-11 14:00N 14°19' E 115°38'1 0.8 27.4
2018-Mar-11 13:00N 14°19' E 115°38'1 0.6 27.4
2018-Mar-11 12:00N 14°19' E 115°39'1 0.8 27.4
2018-Mar-11 11:00N 14°18' E 115°40'1 0.8 27.5
2018-Mar-11 10:00N 14°17' E 115°40'1 0.8 27.5
2018-Mar-11 09:00N 14°17' E 115°41'1 1.3 27.5
2018-Mar-11 08:00N 14°16' E 115°42'1 1.3 27.5
2018-Mar-11 07:00N 14°16' E 115°43'1 1.3 27.5
2018-Mar-11 06:00N 14°15' E 115°44'1 1.3 27.5
2018-Mar-11 05:00N 14°14' E 115°46'1 1.3 27.5
2018-Mar-11 04:00N 14°14' E 115°47'1 1.2 27.5
2018-Mar-11 03:00N 14°14' E 115°48'2 1.7 27.5
2018-Mar-11 02:00N 14°14' E 115°50'1 1.3 27.5
2018-Mar-11 01:00N 14°13' E 115°51'1 0.6 27.4
2018-Mar-11 00:00N 14°13' E 115°52'1 1.2 27.4
2018-Mar-10 23:00N 14°13' E 115°53'1 1.2 27.4
2018-Mar-10 22:00N 14°13' E 115°54'1 1.2 27.5
2018-Mar-10 21:00N 14°13' E 115°55'1 1.2 27.5
2018-Mar-10 20:00N 14°13' E 115°56'1 0.8 27.5
2018-Mar-10 19:00N 14°13' E 115°57'1 0.6 27.5
2018-Mar-10 18:00N 14°13' E 115°58'1 0.6 27.5
2018-Mar-10 17:00N 14°13' E 115°58'1 0.6 27.5
2018-Mar-10 16:00N 14°13' E 115°59'1 0.8 27.5
2018-Mar-10 15:00N 14°12' E 115°59'1 1.3 27.6
2018-Mar-10 14:00N 14°11' E 116°01'1 1.3 27.6
2018-Mar-10 13:00N 14°11' E 116°02'1 1.3 27.6
2018-Mar-10 12:00N 14°10' E 116°03'1 1.2 27.6
2018-Mar-10 11:00N 14°10' E 116°04'1 1.3 27.6
2018-Mar-10 10:00N 14°10' E 116°05'1 1.3 27.6
2018-Mar-10 09:00N 14°09' E 116°07'1 0.8 27.6
2018-Mar-10 08:00N 14°08' E 116°07'1 1.2 27.7
2018-Mar-10 07:00N 14°08' E 116°08'1 1.3 27.7
2018-Mar-10 06:00N 14°08' E 116°10'1 0.6 27.7
2018-Mar-10 05:00N 14°08' E 116°10'1 1.3 27.7
2018-Mar-10 04:00N 14°07' E 116°11'1 0.6 27.7
2018-Mar-10 03:00N 14°07' E 116°12'1 1.3 27.6
2018-Mar-10 02:00N 14°07' E 116°13'   27.6

Dump ship's entire track history